sensor_id;sensor_type;location;lat;lon;timestamp;temperature;humidity
54846;DHT22;53889;50.084;8.646;2022-07-06T00:02:26;20.70;64.40
54846;DHT22;53889;50.084;8.646;2022-07-06T00:04:52;20.70;64.70
54846;DHT22;53889;50.084;8.646;2022-07-06T00:07:19;20.70;65.10
54846;DHT22;53889;50.084;8.646;2022-07-06T00:09:48;20.80;64.50
54846;DHT22;53889;50.084;8.646;2022-07-06T00:12:14;20.80;64.60
54846;DHT22;53889;50.084;8.646;2022-07-06T00:14:42;20.80;64.90
54846;DHT22;53889;50.084;8.646;2022-07-06T00:17:09;20.70;64.90
54846;DHT22;53889;50.084;8.646;2022-07-06T00:19:36;20.70;65.00
54846;DHT22;53889;50.084;8.646;2022-07-06T00:22:03;20.80;65.10
54846;DHT22;53889;50.084;8.646;2022-07-06T00:24:29;20.80;65.00
54846;DHT22;53889;50.084;8.646;2022-07-06T00:26:56;20.90;65.30
54846;DHT22;53889;50.084;8.646;2022-07-06T00:29:23;20.60;65.60
54846;DHT22;53889;50.084;8.646;2022-07-06T00:31:51;20.60;65.80
54846;DHT22;53889;50.084;8.646;2022-07-06T00:34:17;20.60;66.00
54846;DHT22;53889;50.084;8.646;2022-07-06T00:36:44;20.40;67.00
54846;DHT22;53889;50.084;8.646;2022-07-06T00:39:11;20.30;66.80
54846;DHT22;53889;50.084;8.646;2022-07-06T00:41:37;20.30;67.10
54846;DHT22;53889;50.084;8.646;2022-07-06T00:44:07;20.20;67.30
54846;DHT22;53889;50.084;8.646;2022-07-06T00:46:35;20.20;67.60
54846;DHT22;53889;50.084;8.646;2022-07-06T00:49:03;20.30;67.60
54846;DHT22;53889;50.084;8.646;2022-07-06T00:51:31;20.20;67.90
54846;DHT22;53889;50.084;8.646;2022-07-06T00:53:59;20.20;68.10
54846;DHT22;53889;50.084;8.646;2022-07-06T00:56:30;20.10;68.40
54846;DHT22;53889;50.084;8.646;2022-07-06T00:58:57;20.10;68.60
54846;DHT22;53889;50.084;8.646;2022-07-06T01:01:24;20.10;69.00
54846;DHT22;53889;50.084;8.646;2022-07-06T01:03:51;19.90;69.50
54846;DHT22;53889;50.084;8.646;2022-07-06T01:06:19;19.90;69.80
54846;DHT22;53889;50.084;8.646;2022-07-06T01:08:46;19.80;70.10
54846;DHT22;53889;50.084;8.646;2022-07-06T01:11:13;19.80;70.10
54846;DHT22;53889;50.084;8.646;2022-07-06T01:13:40;19.80;70.20
54846;DHT22;53889;50.084;8.646;2022-07-06T01:16:07;19.80;70.10
54846;DHT22;53889;50.084;8.646;2022-07-06T01:18:34;19.90;70.10
54846;DHT22;53889;50.084;8.646;2022-07-06T01:21:10;19.80;70.20
54846;DHT22;53889;50.084;8.646;2022-07-06T01:23:42;19.90;70.10
54846;DHT22;53889;50.084;8.646;2022-07-06T01:26:14;19.90;70.10
54846;DHT22;53889;50.084;8.646;2022-07-06T01:28:42;19.80;70.30
54846;DHT22;53889;50.084;8.646;2022-07-06T01:31:16;19.70;70.80
54846;DHT22;53889;50.084;8.646;2022-07-06T01:33:44;19.70;70.90
54846;DHT22;53889;50.084;8.646;2022-07-06T01:36:12;19.70;71.00
54846;DHT22;53889;50.084;8.646;2022-07-06T01:38:46;19.80;70.90
54846;DHT22;53889;50.084;8.646;2022-07-06T01:41:13;19.70;71.10
54846;DHT22;53889;50.084;8.646;2022-07-06T01:43:40;19.50;72.20
54846;DHT22;53889;50.084;8.646;2022-07-06T01:46:07;19.60;71.70
54846;DHT22;53889;50.084;8.646;2022-07-06T01:48:34;19.60;71.60
54846;DHT22;53889;50.084;8.646;2022-07-06T01:51:00;19.50;72.00
54846;DHT22;53889;50.084;8.646;2022-07-06T01:53:28;19.40;72.60
54846;DHT22;53889;50.084;8.646;2022-07-06T01:55:55;19.40;72.70
54846;DHT22;53889;50.084;8.646;2022-07-06T01:58:22;19.30;72.80
54846;DHT22;53889;50.084;8.646;2022-07-06T02:00:49;19.30;73.00
54846;DHT22;53889;50.084;8.646;2022-07-06T02:03:16;19.30;73.60
54846;DHT22;53889;50.084;8.646;2022-07-06T02:05:42;19.40;73.30
54846;DHT22;53889;50.084;8.646;2022-07-06T02:08:09;19.20;73.40
54846;DHT22;53889;50.084;8.646;2022-07-06T02:10:37;19.30;73.50
54846;DHT22;53889;50.084;8.646;2022-07-06T02:13:04;19.30;73.40
54846;DHT22;53889;50.084;8.646;2022-07-06T02:15:31;19.30;73.40
54846;DHT22;53889;50.084;8.646;2022-07-06T02:17:58;19.30;73.40
54846;DHT22;53889;50.084;8.646;2022-07-06T02:20:25;19.20;73.60
54846;DHT22;53889;50.084;8.646;2022-07-06T02:22:51;19.00;74.20
54846;DHT22;53889;50.084;8.646;2022-07-06T02:25:18;18.90;74.50
54846;DHT22;53889;50.084;8.646;2022-07-06T02:27:46;18.80;75.20
54846;DHT22;53889;50.084;8.646;2022-07-06T02:30:13;18.80;75.20
54846;DHT22;53889;50.084;8.646;2022-07-06T02:32:40;18.70;75.30
54846;DHT22;53889;50.084;8.646;2022-07-06T02:35:08;18.70;75.60
54846;DHT22;53889;50.084;8.646;2022-07-06T02:37:34;18.60;76.00
54846;DHT22;53889;50.084;8.646;2022-07-06T02:40:01;18.50;76.30
54846;DHT22;53889;50.084;8.646;2022-07-06T02:42:31;18.40;76.70
54846;DHT22;53889;50.084;8.646;2022-07-06T02:44:59;18.40;76.90
54846;DHT22;53889;50.084;8.646;2022-07-06T02:47:27;18.30;77.40
54846;DHT22;53889;50.084;8.646;2022-07-06T02:49:54;18.30;77.60
54846;DHT22;53889;50.084;8.646;2022-07-06T02:52:21;18.20;77.80
54846;DHT22;53889;50.084;8.646;2022-07-06T02:54:48;18.20;78.00
54846;DHT22;53889;50.084;8.646;2022-07-06T02:57:15;18.20;77.80
54846;DHT22;53889;50.084;8.646;2022-07-06T02:59:43;18.20;78.20
54846;DHT22;53889;50.084;8.646;2022-07-06T03:02:11;18.20;78.40
54846;DHT22;53889;50.084;8.646;2022-07-06T03:04:38;18.10;78.40
54846;DHT22;53889;50.084;8.646;2022-07-06T03:07:05;18.10;78.50
54846;DHT22;53889;50.084;8.646;2022-07-06T03:09:31;18.10;78.70
54846;DHT22;53889;50.084;8.646;2022-07-06T03:11:58;18.10;78.80
54846;DHT22;53889;50.084;8.646;2022-07-06T03:14:25;18.10;79.10
54846;DHT22;53889;50.084;8.646;2022-07-06T03:16:52;18.00;79.30
54846;DHT22;53889;50.084;8.646;2022-07-06T03:19:21;17.90;79.30
54846;DHT22;53889;50.084;8.646;2022-07-06T03:21:47;17.80;79.50
54846;DHT22;53889;50.084;8.646;2022-07-06T03:24:14;17.80;79.90
54846;DHT22;53889;50.084;8.646;2022-07-06T03:26:42;17.80;79.90
54846;DHT22;53889;50.084;8.646;2022-07-06T03:29:09;17.80;80.00
54846;DHT22;53889;50.084;8.646;2022-07-06T03:31:36;17.80;80.10
54846;DHT22;53889;50.084;8.646;2022-07-06T03:34:03;17.80;79.90
54846;DHT22;53889;50.084;8.646;2022-07-06T03:36:31;17.70;79.90
54846;DHT22;53889;50.084;8.646;2022-07-06T03:38:59;17.80;80.00
54846;DHT22;53889;50.084;8.646;2022-07-06T03:41:26;17.80;79.90
54846;DHT22;53889;50.084;8.646;2022-07-06T03:43:52;17.70;79.80
54846;DHT22;53889;50.084;8.646;2022-07-06T03:46:19;17.70;79.80
54846;DHT22;53889;50.084;8.646;2022-07-06T03:48:46;17.70;80.00
54846;DHT22;53889;50.084;8.646;2022-07-06T03:51:13;17.70;79.90
54846;DHT22;53889;50.084;8.646;2022-07-06T03:53:41;17.60;80.00
54846;DHT22;53889;50.084;8.646;2022-07-06T03:56:08;17.60;79.70
54846;DHT22;53889;50.084;8.646;2022-07-06T03:58:52;17.70;79.40
54846;DHT22;53889;50.084;8.646;2022-07-06T04:01:19;17.60;79.20
54846;DHT22;53889;50.084;8.646;2022-07-06T04:03:46;17.50;79.30
54846;DHT22;53889;50.084;8.646;2022-07-06T04:06:13;17.50;79.70
54846;DHT22;53889;50.084;8.646;2022-07-06T04:08:42;17.50;79.70
54846;DHT22;53889;50.084;8.646;2022-07-06T04:11:10;17.60;79.40
54846;DHT22;53889;50.084;8.646;2022-07-06T04:13:37;17.60;79.50
54846;DHT22;53889;50.084;8.646;2022-07-06T04:16:05;17.60;79.60
54846;DHT22;53889;50.084;8.646;2022-07-06T04:18:32;17.70;79.20
54846;DHT22;53889;50.084;8.646;2022-07-06T04:20:59;17.70;79.20
54846;DHT22;53889;50.084;8.646;2022-07-06T04:23:28;17.70;78.90
54846;DHT22;53889;50.084;8.646;2022-07-06T04:25:56;17.80;79.00
54846;DHT22;53889;50.084;8.646;2022-07-06T04:28:25;17.90;78.70
54846;DHT22;53889;50.084;8.646;2022-07-06T04:30:52;17.90;78.90
54846;DHT22;53889;50.084;8.646;2022-07-06T04:33:21;18.10;78.40
54846;DHT22;53889;50.084;8.646;2022-07-06T04:35:49;18.00;78.40
54846;DHT22;53889;50.084;8.646;2022-07-06T04:38:16;17.80;78.70
54846;DHT22;53889;50.084;8.646;2022-07-06T04:40:44;17.50;78.30
54846;DHT22;53889;50.084;8.646;2022-07-06T04:43:16;18.00;78.50
54846;DHT22;53889;50.084;8.646;2022-07-06T04:45:43;18.00;78.50
54846;DHT22;53889;50.084;8.646;2022-07-06T04:48:10;18.10;78.10
54846;DHT22;53889;50.084;8.646;2022-07-06T04:50:36;18.10;77.90
54846;DHT22;53889;50.084;8.646;2022-07-06T04:53:06;18.20;78.00
54846;DHT22;53889;50.084;8.646;2022-07-06T04:55:34;18.20;77.80
54846;DHT22;53889;50.084;8.646;2022-07-06T04:58:02;18.50;77.20
54846;DHT22;53889;50.084;8.646;2022-07-06T05:00:31;18.90;76.10
54846;DHT22;53889;50.084;8.646;2022-07-06T05:02:57;19.40;74.90
54846;DHT22;53889;50.084;8.646;2022-07-06T05:05:26;19.80;74.10
54846;DHT22;53889;50.084;8.646;2022-07-06T05:07:53;19.80;73.30
54846;DHT22;53889;50.084;8.646;2022-07-06T05:10:20;20.10;72.70
54846;DHT22;53889;50.084;8.646;2022-07-06T05:12:50;20.50;71.60
54846;DHT22;53889;50.084;8.646;2022-07-06T05:15:17;20.30;71.70
54846;DHT22;53889;50.084;8.646;2022-07-06T05:17:45;20.30;72.10
54846;DHT22;53889;50.084;8.646;2022-07-06T05:20:13;20.30;71.70
54846;DHT22;53889;50.084;8.646;2022-07-06T05:22:42;20.60;71.60
54846;DHT22;53889;50.084;8.646;2022-07-06T05:25:09;20.30;71.80
54846;DHT22;53889;50.084;8.646;2022-07-06T05:27:36;20.60;70.80
54846;DHT22;53889;50.084;8.646;2022-07-06T05:30:05;20.90;69.90
54846;DHT22;53889;50.084;8.646;2022-07-06T05:32:32;20.90;69.80
54846;DHT22;53889;50.084;8.646;2022-07-06T05:35:00;20.90;69.50
54846;DHT22;53889;50.084;8.646;2022-07-06T05:37:28;21.00;69.60
54846;DHT22;53889;50.084;8.646;2022-07-06T05:39:55;20.70;70.10
54846;DHT22;53889;50.084;8.646;2022-07-06T05:42:21;20.60;70.70
54846;DHT22;53889;50.084;8.646;2022-07-06T05:44:49;20.30;71.00
54846;DHT22;53889;50.084;8.646;2022-07-06T05:47:15;20.00;72.10
54846;DHT22;53889;50.084;8.646;2022-07-06T05:50:01;19.80;73.00
54846;DHT22;53889;50.084;8.646;2022-07-06T05:52:58;19.80;73.00
54846;DHT22;53889;50.084;8.646;2022-07-06T05:55:25;19.90;73.30
54846;DHT22;53889;50.084;8.646;2022-07-06T05:57:53;19.70;73.50
54846;DHT22;53889;50.084;8.646;2022-07-06T06:00:22;19.70;73.70
54846;DHT22;53889;50.084;8.646;2022-07-06T06:02:53;20.10;72.80
54846;DHT22;53889;50.084;8.646;2022-07-06T06:05:22;20.50;71.70
54846;DHT22;53889;50.084;8.646;2022-07-06T06:07:52;20.50;71.10
54846;DHT22;53889;50.084;8.646;2022-07-06T06:10:22;20.20;71.80
54846;DHT22;53889;50.084;8.646;2022-07-06T06:12:51;19.90;72.50
54846;DHT22;53889;50.084;8.646;2022-07-06T06:15:18;19.90;72.70
54846;DHT22;53889;50.084;8.646;2022-07-06T06:17:45;19.80;72.80
54846;DHT22;53889;50.084;8.646;2022-07-06T06:20:13;19.80;72.50
54846;DHT22;53889;50.084;8.646;2022-07-06T06:22:46;19.90;72.50
54846;DHT22;53889;50.084;8.646;2022-07-06T06:25:13;19.90;73.00
54846;DHT22;53889;50.084;8.646;2022-07-06T06:27:40;20.50;73.00
54846;DHT22;53889;50.084;8.646;2022-07-06T06:30:07;20.10;72.50
54846;DHT22;53889;50.084;8.646;2022-07-06T06:32:34;20.50;72.00
54846;DHT22;53889;50.084;8.646;2022-07-06T06:35:01;21.20;69.70
54846;DHT22;53889;50.084;8.646;2022-07-06T06:37:28;22.00;67.60
54846;DHT22;53889;50.084;8.646;2022-07-06T06:39:56;22.40;66.80
54846;DHT22;53889;50.084;8.646;2022-07-06T06:42:22;23.10;65.00
54846;DHT22;53889;50.084;8.646;2022-07-06T06:44:51;24.10;62.80
54846;DHT22;53889;50.084;8.646;2022-07-06T06:47:17;24.60;61.40
54846;DHT22;53889;50.084;8.646;2022-07-06T06:49:45;24.60;60.90
54846;DHT22;53889;50.084;8.646;2022-07-06T06:52:12;24.80;60.70
54846;DHT22;53889;50.084;8.646;2022-07-06T06:54:39;25.30;59.70
54846;DHT22;53889;50.084;8.646;2022-07-06T06:57:07;24.80;59.70
54846;DHT22;53889;50.084;8.646;2022-07-06T06:59:34;24.70;60.30
54846;DHT22;53889;50.084;8.646;2022-07-06T07:02:01;25.10;59.90
54846;DHT22;53889;50.084;8.646;2022-07-06T07:04:28;25.00;59.20
54846;DHT22;53889;50.084;8.646;2022-07-06T07:06:56;24.80;59.90
54846;DHT22;53889;50.084;8.646;2022-07-06T07:09:23;24.50;60.20
54846;DHT22;53889;50.084;8.646;2022-07-06T07:11:49;23.70;61.90
54846;DHT22;53889;50.084;8.646;2022-07-06T07:14:17;23.80;62.50
54846;DHT22;53889;50.084;8.646;2022-07-06T07:16:44;24.50;61.00
54846;DHT22;53889;50.084;8.646;2022-07-06T07:19:11;25.60;58.80
54846;DHT22;53889;50.084;8.646;2022-07-06T07:21:37;25.50;58.50
54846;DHT22;53889;50.084;8.646;2022-07-06T07:24:05;24.90;59.20
54846;DHT22;53889;50.084;8.646;2022-07-06T07:26:32;24.50;60.10
54846;DHT22;53889;50.084;8.646;2022-07-06T07:28:59;24.10;60.90
54846;DHT22;53889;50.084;8.646;2022-07-06T07:31:27;23.60;61.20
54846;DHT22;53889;50.084;8.646;2022-07-06T07:33:54;23.40;62.30
54846;DHT22;53889;50.084;8.646;2022-07-06T07:36:22;24.30;61.40
54846;DHT22;53889;50.084;8.646;2022-07-06T07:38:49;24.30;60.00
54846;DHT22;53889;50.084;8.646;2022-07-06T07:41:16;23.80;60.90
54846;DHT22;53889;50.084;8.646;2022-07-06T07:43:43;24.20;60.70
54846;DHT22;53889;50.084;8.646;2022-07-06T07:46:09;24.80;59.30
54846;DHT22;53889;50.084;8.646;2022-07-06T07:48:38;24.50;59.60
54846;DHT22;53889;50.084;8.646;2022-07-06T07:51:05;24.00;60.20
54846;DHT22;53889;50.084;8.646;2022-07-06T07:53:32;23.30;61.60
54846;DHT22;53889;50.084;8.646;2022-07-06T07:55:58;22.80;63.00
54846;DHT22;53889;50.084;8.646;2022-07-06T07:58:26;22.60;63.20
54846;DHT22;53889;50.084;8.646;2022-07-06T08:00:53;22.40;63.70
54846;DHT22;53889;50.084;8.646;2022-07-06T08:03:20;22.20;63.50
54846;DHT22;53889;50.084;8.646;2022-07-06T08:05:48;21.90;64.30
54846;DHT22;53889;50.084;8.646;2022-07-06T08:08:16;21.90;64.70
54846;DHT22;53889;50.084;8.646;2022-07-06T08:10:43;21.60;64.80
54846;DHT22;53889;50.084;8.646;2022-07-06T08:13:10;21.70;64.70
54846;DHT22;53889;50.084;8.646;2022-07-06T08:15:37;21.70;64.30
54846;DHT22;53889;50.084;8.646;2022-07-06T08:18:04;21.80;63.80
54846;DHT22;53889;50.084;8.646;2022-07-06T08:20:31;21.80;63.70
54846;DHT22;53889;50.084;8.646;2022-07-06T08:22:59;21.60;64.40
54846;DHT22;53889;50.084;8.646;2022-07-06T08:25:26;21.30;64.50
54846;DHT22;53889;50.084;8.646;2022-07-06T08:27:53;21.20;65.90
54846;DHT22;53889;50.084;8.646;2022-07-06T08:30:19;21.40;64.70
54846;DHT22;53889;50.084;8.646;2022-07-06T08:32:47;21.50;64.20
54846;DHT22;53889;50.084;8.646;2022-07-06T08:35:14;21.70;64.10
54846;DHT22;53889;50.084;8.646;2022-07-06T08:37:40;22.20;63.20
54846;DHT22;53889;50.084;8.646;2022-07-06T08:40:09;22.10;63.20
54846;DHT22;53889;50.084;8.646;2022-07-06T08:42:36;22.20;62.80
54846;DHT22;53889;50.084;8.646;2022-07-06T08:45:05;22.50;62.20
54846;DHT22;53889;50.084;8.646;2022-07-06T08:47:35;22.80;61.40
54846;DHT22;53889;50.084;8.646;2022-07-06T08:50:03;23.20;60.30
54846;DHT22;53889;50.084;8.646;2022-07-06T08:52:30;23.20;60.30
54846;DHT22;53889;50.084;8.646;2022-07-06T08:54:57;24.30;59.00
54846;DHT22;53889;50.084;8.646;2022-07-06T08:57:26;24.80;56.70
54846;DHT22;53889;50.084;8.646;2022-07-06T08:59:52;24.30;57.20
54846;DHT22;53889;50.084;8.646;2022-07-06T09:02:19;24.90;56.30
54846;DHT22;53889;50.084;8.646;2022-07-06T09:04:50;25.90;54.30
54846;DHT22;53889;50.084;8.646;2022-07-06T09:07:20;25.60;53.70
54846;DHT22;53889;50.084;8.646;2022-07-06T09:09:48;25.00;54.70
54846;DHT22;53889;50.084;8.646;2022-07-06T09:12:16;25.40;53.90
54846;DHT22;53889;50.084;8.646;2022-07-06T09:14:44;25.80;52.50
54846;DHT22;53889;50.084;8.646;2022-07-06T09:17:12;26.40;52.50
54846;DHT22;53889;50.084;8.646;2022-07-06T09:19:39;26.10;52.80
54846;DHT22;53889;50.084;8.646;2022-07-06T09:22:06;26.20;51.80
54846;DHT22;53889;50.084;8.646;2022-07-06T09:24:41;27.30;50.60
54846;DHT22;53889;50.084;8.646;2022-07-06T09:27:15;28.20;49.00
54846;DHT22;53889;50.084;8.646;2022-07-06T09:29:45;27.50;49.30
54846;DHT22;53889;50.084;8.646;2022-07-06T09:32:12;25.90;51.20
54846;DHT22;53889;50.084;8.646;2022-07-06T09:34:40;25.70;52.50
54846;DHT22;53889;50.084;8.646;2022-07-06T09:37:08;25.90;51.50
54846;DHT22;53889;50.084;8.646;2022-07-06T09:39:35;25.80;50.40
54846;DHT22;53889;50.084;8.646;2022-07-06T09:42:05;26.40;49.40
54846;DHT22;53889;50.084;8.646;2022-07-06T09:44:34;27.30;48.50
54846;DHT22;53889;50.084;8.646;2022-07-06T09:47:04;27.40;48.60
54846;DHT22;53889;50.084;8.646;2022-07-06T09:49:32;28.10;47.00
54846;DHT22;53889;50.084;8.646;2022-07-06T09:52:02;28.70;46.40
54846;DHT22;53889;50.084;8.646;2022-07-06T09:54:29;28.40;46.00
54846;DHT22;53889;50.084;8.646;2022-07-06T09:56:57;27.80;46.70
54846;DHT22;53889;50.084;8.646;2022-07-06T09:59:25;28.10;46.70
54846;DHT22;53889;50.084;8.646;2022-07-06T10:01:54;28.50;46.20
54846;DHT22;53889;50.084;8.646;2022-07-06T10:04:24;29.30;44.90
54846;DHT22;53889;50.084;8.646;2022-07-06T10:06:51;28.70;44.10
54846;DHT22;53889;50.084;8.646;2022-07-06T10:09:19;27.20;46.30
54846;DHT22;53889;50.084;8.646;2022-07-06T10:11:49;27.00;46.70
54846;DHT22;53889;50.084;8.646;2022-07-06T10:14:18;26.70;47.00
54846;DHT22;53889;50.084;8.646;2022-07-06T10:16:46;26.40;47.50
54846;DHT22;53889;50.084;8.646;2022-07-06T10:19:14;26.70;46.90
54846;DHT22;53889;50.084;8.646;2022-07-06T10:21:44;26.90;46.60
54846;DHT22;53889;50.084;8.646;2022-07-06T10:24:12;27.00;46.40
54846;DHT22;53889;50.084;8.646;2022-07-06T10:26:40;27.50;45.70
54846;DHT22;53889;50.084;8.646;2022-07-06T10:29:07;28.00;44.70
54846;DHT22;53889;50.084;8.646;2022-07-06T10:31:37;27.80;44.50
54846;DHT22;53889;50.084;8.646;2022-07-06T10:34:06;28.00;44.50
54846;DHT22;53889;50.084;8.646;2022-07-06T10:36:37;26.80;44.90
54846;DHT22;53889;50.084;8.646;2022-07-06T10:39:06;27.00;45.60
54846;DHT22;53889;50.084;8.646;2022-07-06T10:41:47;27.90;44.60
54846;DHT22;53889;50.084;8.646;2022-07-06T10:44:15;28.30;44.10
54846;DHT22;53889;50.084;8.646;2022-07-06T10:46:50;29.10;44.10
54846;DHT22;53889;50.084;8.646;2022-07-06T10:49:17;28.60;43.60
54846;DHT22;53889;50.084;8.646;2022-07-06T10:51:44;28.10;44.40
54846;DHT22;53889;50.084;8.646;2022-07-06T10:54:12;28.50;43.80
54846;DHT22;53889;50.084;8.646;2022-07-06T10:56:40;28.70;43.60
54846;DHT22;53889;50.084;8.646;2022-07-06T10:59:10;28.70;43.20
54846;DHT22;53889;50.084;8.646;2022-07-06T11:01:38;28.30;43.80
54846;DHT22;53889;50.084;8.646;2022-07-06T11:04:06;27.90;44.40
54846;DHT22;53889;50.084;8.646;2022-07-06T11:06:34;27.70;45.20
54846;DHT22;53889;50.084;8.646;2022-07-06T11:09:03;26.90;45.40
54846;DHT22;53889;50.084;8.646;2022-07-06T11:11:41;25.80;47.40
54846;DHT22;53889;50.084;8.646;2022-07-06T11:14:12;25.40;48.30
54846;DHT22;53889;50.084;8.646;2022-07-06T11:16:59;25.10;49.80
54846;DHT22;53889;50.084;8.646;2022-07-06T11:19:27;25.60;49.50
54846;DHT22;53889;50.084;8.646;2022-07-06T11:21:55;26.60;47.70
54846;DHT22;53889;50.084;8.646;2022-07-06T11:24:24;27.40;46.90
54846;DHT22;53889;50.084;8.646;2022-07-06T11:26:53;27.40;46.40
54846;DHT22;53889;50.084;8.646;2022-07-06T11:29:27;27.40;46.10
54846;DHT22;53889;50.084;8.646;2022-07-06T11:31:55;27.50;45.60
54846;DHT22;53889;50.084;8.646;2022-07-06T11:34:25;28.90;45.50
54846;DHT22;53889;50.084;8.646;2022-07-06T11:36:55;28.80;43.60
54846;DHT22;53889;50.084;8.646;2022-07-06T11:39:22;29.20;43.30
54846;DHT22;53889;50.084;8.646;2022-07-06T11:41:49;29.50;42.90
54846;DHT22;53889;50.084;8.646;2022-07-06T11:44:17;30.10;42.10
54846;DHT22;53889;50.084;8.646;2022-07-06T11:46:44;30.30;42.50
54846;DHT22;53889;50.084;8.646;2022-07-06T11:49:11;30.30;42.00
54846;DHT22;53889;50.084;8.646;2022-07-06T11:51:39;30.00;42.10
54846;DHT22;53889;50.084;8.646;2022-07-06T11:54:10;28.80;43.40
54846;DHT22;53889;50.084;8.646;2022-07-06T11:56:37;28.00;44.30
54846;DHT22;53889;50.084;8.646;2022-07-06T11:59:04;28.60;44.20
54846;DHT22;53889;50.084;8.646;2022-07-06T12:01:33;30.00;42.90
54846;DHT22;53889;50.084;8.646;2022-07-06T12:04:02;30.50;41.50
54846;DHT22;53889;50.084;8.646;2022-07-06T12:06:29;30.60;41.40
54846;DHT22;53889;50.084;8.646;2022-07-06T12:08:59;30.30;41.40
54846;DHT22;53889;50.084;8.646;2022-07-06T12:11:30;30.50;40.90
54846;DHT22;53889;50.084;8.646;2022-07-06T12:13:58;30.40;41.70
54846;DHT22;53889;50.084;8.646;2022-07-06T12:16:29;31.00;40.80
54846;DHT22;53889;50.084;8.646;2022-07-06T12:18:57;29.80;41.70
54846;DHT22;53889;50.084;8.646;2022-07-06T12:21:24;30.40;41.90
54846;DHT22;53889;50.084;8.646;2022-07-06T12:23:53;30.90;40.40
54846;DHT22;53889;50.084;8.646;2022-07-06T12:26:21;30.10;41.30
54846;DHT22;53889;50.084;8.646;2022-07-06T12:28:59;30.50;41.00
54846;DHT22;53889;50.084;8.646;2022-07-06T12:31:34;30.90;40.70
54846;DHT22;53889;50.084;8.646;2022-07-06T12:34:03;30.80;40.00
54846;DHT22;53889;50.084;8.646;2022-07-06T12:36:31;31.10;39.60
54846;DHT22;53889;50.084;8.646;2022-07-06T12:38:58;30.90;40.60
54846;DHT22;53889;50.084;8.646;2022-07-06T12:41:32;31.40;39.90
54846;DHT22;53889;50.084;8.646;2022-07-06T12:44:08;31.60;39.80
54846;DHT22;53889;50.084;8.646;2022-07-06T12:46:36;31.40;39.80
54846;DHT22;53889;50.084;8.646;2022-07-06T12:49:14;31.80;39.40
54846;DHT22;53889;50.084;8.646;2022-07-06T12:51:58;30.90;39.70
54846;DHT22;53889;50.084;8.646;2022-07-06T12:54:27;30.00;40.00
54846;DHT22;53889;50.084;8.646;2022-07-06T12:57:03;29.30;41.20
54846;DHT22;53889;50.084;8.646;2022-07-06T12:59:32;28.50;42.70
54846;DHT22;53889;50.084;8.646;2022-07-06T13:02:01;28.40;43.00
54846;DHT22;53889;50.084;8.646;2022-07-06T13:04:30;28.70;42.20
54846;DHT22;53889;50.084;8.646;2022-07-06T13:06:59;28.90;41.90
54846;DHT22;53889;50.084;8.646;2022-07-06T13:09:27;28.40;42.00
54846;DHT22;53889;50.084;8.646;2022-07-06T13:11:54;28.30;42.70
54846;DHT22;53889;50.084;8.646;2022-07-06T13:14:20;28.40;42.40
54846;DHT22;53889;50.084;8.646;2022-07-06T13:16:48;28.40;42.30
54846;DHT22;53889;50.084;8.646;2022-07-06T13:19:15;28.50;43.00
54846;DHT22;53889;50.084;8.646;2022-07-06T13:21:43;28.00;43.10
54846;DHT22;53889;50.084;8.646;2022-07-06T13:24:11;27.90;43.60
54846;DHT22;53889;50.084;8.646;2022-07-06T13:26:39;27.60;43.50
54846;DHT22;53889;50.084;8.646;2022-07-06T13:29:06;27.30;43.80
54846;DHT22;53889;50.084;8.646;2022-07-06T13:31:36;26.90;43.80
54846;DHT22;53889;50.084;8.646;2022-07-06T13:34:04;26.50;45.30
54846;DHT22;53889;50.084;8.646;2022-07-06T13:36:30;26.40;44.90
54846;DHT22;53889;50.084;8.646;2022-07-06T13:38:58;26.20;45.10
54846;DHT22;53889;50.084;8.646;2022-07-06T13:41:25;26.30;45.00
54846;DHT22;53889;50.084;8.646;2022-07-06T13:43:52;26.00;45.40
54846;DHT22;53889;50.084;8.646;2022-07-06T13:46:19;25.90;45.80
54846;DHT22;53889;50.084;8.646;2022-07-06T13:48:46;26.00;45.50
54846;DHT22;53889;50.084;8.646;2022-07-06T13:51:13;26.10;45.40
54846;DHT22;53889;50.084;8.646;2022-07-06T13:53:40;25.70;45.80
54846;DHT22;53889;50.084;8.646;2022-07-06T13:56:08;25.70;45.60
54846;DHT22;53889;50.084;8.646;2022-07-06T13:58:35;25.70;45.50
54846;DHT22;53889;50.084;8.646;2022-07-06T14:01:02;25.50;45.50
54846;DHT22;53889;50.084;8.646;2022-07-06T14:03:29;25.50;45.50
54846;DHT22;53889;50.084;8.646;2022-07-06T14:05:57;25.70;46.10
54846;DHT22;53889;50.084;8.646;2022-07-06T14:08:24;25.40;46.00
54846;DHT22;53889;50.084;8.646;2022-07-06T14:10:51;25.50;46.30
54846;DHT22;53889;50.084;8.646;2022-07-06T14:13:20;25.40;45.80
54846;DHT22;53889;50.084;8.646;2022-07-06T14:15:47;25.10;45.90
54846;DHT22;53889;50.084;8.646;2022-07-06T14:18:14;25.10;46.10
54846;DHT22;53889;50.084;8.646;2022-07-06T14:20:43;25.00;45.70
54846;DHT22;53889;50.084;8.646;2022-07-06T14:23:10;25.20;45.80
54846;DHT22;53889;50.084;8.646;2022-07-06T14:25:36;25.10;45.50
54846;DHT22;53889;50.084;8.646;2022-07-06T14:28:03;24.90;45.80
54846;DHT22;53889;50.084;8.646;2022-07-06T14:30:32;24.90;45.60
54846;DHT22;53889;50.084;8.646;2022-07-06T14:33:00;25.00;45.60
54846;DHT22;53889;50.084;8.646;2022-07-06T14:35:27;25.00;45.30
54846;DHT22;53889;50.084;8.646;2022-07-06T14:37:54;25.20;45.20
54846;DHT22;53889;50.084;8.646;2022-07-06T14:40:21;25.00;45.30
54846;DHT22;53889;50.084;8.646;2022-07-06T14:42:48;24.80;45.90
54846;DHT22;53889;50.084;8.646;2022-07-06T14:45:15;24.50;46.20
54846;DHT22;53889;50.084;8.646;2022-07-06T14:47:43;24.40;47.10
54846;DHT22;53889;50.084;8.646;2022-07-06T14:50:10;24.40;46.90
54846;DHT22;53889;50.084;8.646;2022-07-06T14:52:36;24.60;46.50
54846;DHT22;53889;50.084;8.646;2022-07-06T14:55:04;25.70;47.80
54846;DHT22;53889;50.084;8.646;2022-07-06T14:57:31;24.60;47.20
54846;DHT22;53889;50.084;8.646;2022-07-06T14:59:58;24.90;46.70
54846;DHT22;53889;50.084;8.646;2022-07-06T15:02:24;25.10;46.30
54846;DHT22;53889;50.084;8.646;2022-07-06T15:04:52;25.10;45.70
54846;DHT22;53889;50.084;8.646;2022-07-06T15:07:19;24.90;45.80
54846;DHT22;53889;50.084;8.646;2022-07-06T15:09:46;24.70;45.80
54846;DHT22;53889;50.084;8.646;2022-07-06T15:12:13;24.40;46.00
54846;DHT22;53889;50.084;8.646;2022-07-06T15:14:40;24.60;46.20
54846;DHT22;53889;50.084;8.646;2022-07-06T15:17:07;25.10;46.50
54846;DHT22;53889;50.084;8.646;2022-07-06T15:19:34;25.00;47.20
54846;DHT22;53889;50.084;8.646;2022-07-06T15:22:03;24.60;48.60
54846;DHT22;53889;50.084;8.646;2022-07-06T15:24:29;24.40;48.90
54846;DHT22;53889;50.084;8.646;2022-07-06T15:26:56;24.30;49.30
54846;DHT22;53889;50.084;8.646;2022-07-06T15:29:24;24.30;49.40
54846;DHT22;53889;50.084;8.646;2022-07-06T15:31:51;24.20;49.50
54846;DHT22;53889;50.084;8.646;2022-07-06T15:34:18;24.30;48.90
54846;DHT22;53889;50.084;8.646;2022-07-06T15:36:45;23.80;49.90